createdAt,value
2018-10-12T00:00:51.390Z,20.27
2018-10-12T00:03:18.798Z,16.67
2018-10-12T00:05:46.145Z,17.43
2018-10-12T00:08:13.514Z,17.50
2018-10-12T00:10:40.907Z,16.13
2018-10-12T00:13:08.335Z,16.60
2018-10-12T00:15:35.721Z,15.93
2018-10-12T00:18:03.102Z,23.23
2018-10-12T00:20:30.481Z,16.50
2018-10-12T00:22:57.861Z,18.57
2018-10-12T00:25:25.199Z,20.47
2018-10-12T00:27:52.598Z,17.00
2018-10-12T00:30:19.930Z,17.40
2018-10-12T00:32:47.718Z,16.43
2018-10-12T00:35:15.107Z,17.40
2018-10-12T00:37:42.557Z,20.93
2018-10-12T00:40:09.949Z,17.47
2018-10-12T00:42:37.283Z,20.80
2018-10-12T00:45:04.965Z,18.07
2018-10-12T00:47:32.303Z,18.33
2018-10-12T00:49:59.636Z,17.63
2018-10-12T00:52:27.033Z,18.70
2018-10-12T00:54:54.439Z,20.90
2018-10-12T00:57:21.884Z,15.93
2018-10-12T00:59:49.351Z,17.17
2018-10-12T01:02:17.019Z,16.07
2018-10-12T01:04:44.351Z,17.10
2018-10-12T01:07:11.690Z,17.73
2018-10-12T01:09:39.184Z,15.03
2018-10-12T01:12:45.065Z,25.27
2018-10-12T01:15:12.567Z,16.07
2018-10-12T01:17:39.906Z,18.80
2018-10-12T01:20:08.034Z,16.50
2018-10-12T01:22:35.512Z,15.53
2018-10-12T01:25:04.085Z,19.83
2018-10-12T01:27:31.759Z,16.63
2018-10-12T01:29:59.147Z,17.73
2018-10-12T01:32:32.107Z,18.50
2018-10-12T01:34:59.510Z,16.80
2018-10-12T01:37:26.930Z,18.10
2018-10-12T01:39:54.425Z,17.20
2018-10-12T01:42:21.859Z,17.10
2018-10-12T01:44:49.298Z,17.70
2018-10-12T01:47:16.759Z,16.17
2018-10-12T01:49:44.099Z,16.97
2018-10-12T01:52:12.205Z,17.30
2018-10-12T01:54:39.818Z,18.13
2018-10-12T01:57:07.791Z,19.80
2018-10-12T01:59:35.145Z,26.57
2018-10-12T02:02:02.714Z,16.70
2018-10-12T02:04:30.265Z,23.80
2018-10-12T02:06:57.662Z,21.03
2018-10-12T02:09:25.049Z,20.27
2018-10-12T02:11:52.366Z,17.43
2018-10-12T02:14:19.742Z,16.13
2018-10-12T02:16:47.101Z,17.40
2018-10-12T02:19:14.546Z,17.03
2018-10-12T02:21:42.013Z,18.60
2018-10-12T02:24:09.396Z,17.33
2018-10-12T02:26:36.766Z,18.77
2018-10-12T02:29:04.098Z,17.87
2018-10-12T02:31:31.723Z,25.70
2018-10-12T02:33:59.208Z,17.80
2018-10-12T02:36:26.549Z,20.13
2018-10-12T02:38:53.891Z,20.47
2018-10-12T02:41:21.465Z,17.87
2018-10-12T02:43:48.875Z,23.20
2018-10-12T02:46:16.293Z,19.37
2018-10-12T02:48:43.698Z,19.37
2018-10-12T02:51:11.293Z,19.57
2018-10-12T02:53:38.707Z,18.20
2018-10-12T02:56:06.383Z,19.67
2018-10-12T02:58:33.783Z,21.33
2018-10-12T03:01:02.193Z,19.83
2018-10-12T03:03:29.539Z,18.40
2018-10-12T03:05:56.933Z,18.97
2018-10-12T03:08:24.299Z,16.27
2018-10-12T03:10:51.691Z,19.13
2018-10-12T03:13:19.104Z,20.37
2018-10-12T03:15:46.468Z,18.57
2018-10-12T03:18:13.885Z,19.70
2018-10-12T03:20:41.312Z,18.50
2018-10-12T03:23:08.705Z,16.90
2018-10-12T03:25:36.114Z,19.20
2018-10-12T03:28:15.094Z,17.23
2018-10-12T03:30:42.665Z,18.27
2018-10-12T03:33:10.079Z,20.23
2018-10-12T03:35:37.445Z,18.40
2018-10-12T03:38:04.826Z,19.07
2018-10-12T03:40:32.241Z,19.90
2018-10-12T03:42:59.642Z,18.70
2018-10-12T03:45:27.058Z,17.50
2018-10-12T03:47:54.537Z,19.50
2018-10-12T03:50:21.929Z,23.90
2018-10-12T03:52:49.362Z,26.23
2018-10-12T03:55:16.750Z,21.83
2018-10-12T03:57:44.209Z,19.20
2018-10-12T04:00:11.643Z,24.03
2018-10-12T04:02:39.272Z,19.10
2018-10-12T04:05:06.845Z,22.67
2018-10-12T04:07:34.249Z,21.43
2018-10-12T04:10:01.655Z,23.13
2018-10-12T04:12:29.056Z,22.10
2018-10-12T04:14:56.495Z,20.70
2018-10-12T04:17:24.039Z,19.40
2018-10-12T04:19:51.380Z,20.80
2018-10-12T04:22:21.478Z,21.83
2018-10-12T04:24:49.031Z,19.90
2018-10-12T04:27:16.348Z,20.03
2018-10-12T04:29:43.705Z,22.23
2018-10-12T04:32:11.110Z,21.37
2018-10-12T04:34:38.425Z,22.23
2018-10-12T04:37:05.937Z,20.80
2018-10-12T04:39:45.199Z,21.00
2018-10-12T04:42:12.939Z,22.10
2018-10-12T04:44:40.280Z,22.37
2018-10-12T04:47:07.647Z,21.90
2018-10-12T04:49:35.203Z,23.70
2018-10-12T04:52:02.571Z,23.23
2018-10-12T04:54:30.006Z,20.67
2018-10-12T04:56:57.342Z,20.27
2018-10-12T04:59:24.617Z,20.53
2018-10-12T05:01:51.973Z,21.40
2018-10-12T05:04:19.549Z,21.17
2018-10-12T05:06:46.881Z,22.60
2018-10-12T05:09:14.783Z,20.40
2018-10-12T05:11:42.142Z,21.60
2018-10-12T05:14:10.250Z,20.93
2018-10-12T05:16:37.644Z,29.57
2018-10-12T05:19:05.355Z,23.50
2018-10-12T05:21:32.946Z,30.73
2018-10-12T05:24:00.267Z,31.57
2018-10-12T05:26:27.702Z,24.70
2018-10-12T05:28:55.096Z,20.17
2018-10-12T05:31:22.625Z,22.87
2018-10-12T05:33:49.876Z,26.40
2018-10-12T05:36:17.279Z,27.80
2018-10-12T05:38:44.602Z,29.90
2018-10-12T05:41:11.957Z,22.90
2018-10-12T05:43:39.408Z,29.00
2018-10-12T05:46:06.829Z,26.77
2018-10-12T05:48:45.481Z,26.50
2018-10-12T05:51:14.278Z,25.57
2018-10-12T05:53:41.949Z,29.70
2018-10-12T05:56:09.935Z,43.60
2018-10-12T05:58:38.073Z,41.57
2018-10-12T06:01:05.516Z,35.83
2018-10-12T06:03:32.806Z,29.20
2018-10-12T06:06:02.839Z,22.77
2018-10-12T06:08:30.869Z,25.20
2018-10-12T06:10:58.175Z,25.63
2018-10-12T06:13:25.474Z,27.20
2018-10-12T06:15:52.877Z,23.93
2018-10-12T06:18:20.174Z,26.23
2018-10-12T06:20:47.530Z,24.10
2018-10-12T06:23:14.835Z,25.50
2018-10-12T06:25:42.148Z,21.53
2018-10-12T06:28:09.390Z,23.63
2018-10-12T06:30:36.674Z,26.30
2018-10-12T06:33:03.927Z,28.23
2018-10-12T06:35:31.120Z,25.20
2018-10-12T06:37:59.125Z,27.07
2018-10-12T06:40:26.599Z,23.00
2018-10-12T06:42:53.909Z,26.53
2018-10-12T06:45:21.196Z,28.30
2018-10-12T06:47:48.444Z,25.40
2018-10-12T06:50:15.761Z,24.40
2018-10-12T06:52:43.019Z,24.83
2018-10-12T06:55:10.261Z,26.37
2018-10-12T06:57:37.465Z,26.10
2018-10-12T07:00:05.535Z,27.93
2018-10-12T07:02:32.794Z,27.27
2018-10-12T07:05:00.518Z,26.60
2018-10-12T07:07:27.894Z,27.73
2018-10-12T07:09:55.321Z,30.10
2018-10-12T07:12:22.672Z,25.90
2018-10-12T07:14:49.949Z,24.17
2018-10-12T07:17:17.445Z,25.67
2018-10-12T07:19:44.776Z,27.00
2018-10-12T07:22:12.057Z,22.83
2018-10-12T07:24:39.494Z,24.97
2018-10-12T07:27:06.943Z,23.60
2018-10-12T07:29:34.467Z,26.30
2018-10-12T07:32:01.792Z,27.03
2018-10-12T07:34:29.104Z,25.20
2018-10-12T07:36:56.398Z,22.23
2018-10-12T07:39:23.776Z,23.37
2018-10-12T07:41:51.095Z,22.67
2018-10-12T07:44:18.424Z,24.20
2018-10-12T07:46:45.799Z,22.37
2018-10-12T07:49:13.137Z,20.60
2018-10-12T07:51:40.470Z,22.53
2018-10-12T07:54:07.844Z,22.60
2018-10-12T07:56:35.098Z,21.77
2018-10-12T07:59:02.348Z,22.83
2018-10-12T08:01:29.901Z,21.83
2018-10-12T08:03:57.197Z,23.13
2018-10-12T08:06:24.773Z,22.13
2018-10-12T08:08:52.279Z,21.00
2018-10-12T08:11:19.598Z,21.00
2018-10-12T08:13:47.011Z,21.67
2018-10-12T08:16:14.359Z,21.30
2018-10-12T08:18:41.774Z,20.53
2018-10-12T08:21:09.113Z,18.97
2018-10-12T08:23:36.424Z,19.23
2018-10-12T08:26:03.878Z,19.80
2018-10-12T08:28:31.236Z,20.60
2018-10-12T08:30:58.553Z,18.50
2018-10-12T08:33:26.025Z,17.93
2018-10-12T08:35:53.333Z,19.87
2018-10-12T08:38:20.726Z,17.73
2018-10-12T08:40:48.114Z,16.47
2018-10-12T08:43:15.540Z,16.43
2018-10-12T08:45:42.858Z,16.93
2018-10-12T08:48:10.237Z,17.23
2018-10-12T08:50:37.606Z,15.43
2018-10-12T08:53:04.979Z,16.10
2018-10-12T08:55:32.437Z,17.40
2018-10-12T08:57:59.661Z,14.83
2018-10-12T09:00:28.029Z,17.07
2018-10-12T09:02:55.472Z,16.27
2018-10-12T09:05:22.905Z,18.00
2018-10-12T09:07:50.198Z,16.07
2018-10-12T09:10:17.545Z,16.00
2018-10-12T09:12:44.842Z,15.17
2018-10-12T09:15:12.190Z,15.30
2018-10-12T09:17:39.730Z,16.80
2018-10-12T09:20:07.661Z,15.33
2018-10-12T09:22:35.075Z,16.87
2018-10-12T09:25:02.429Z,16.10
2018-10-12T09:27:29.795Z,16.70
2018-10-12T09:29:57.163Z,15.63
2018-10-12T09:32:24.477Z,16.60
2018-10-12T09:34:51.903Z,16.20
2018-10-12T09:37:19.273Z,17.57
2018-10-12T09:39:46.668Z,15.93
2018-10-12T09:42:14.072Z,16.83
2018-10-12T09:44:41.468Z,17.00
2018-10-12T09:47:08.909Z,14.90
2018-10-12T09:49:36.294Z,16.40
2018-10-12T09:52:03.660Z,14.50
2018-10-12T09:54:31.021Z,15.60
2018-10-12T09:57:03.917Z,14.90
2018-10-12T09:59:31.302Z,14.97
2018-10-12T10:02:04.342Z,15.00
2018-10-12T10:04:33.041Z,13.30
2018-10-12T10:07:02.011Z,13.60
2018-10-12T10:09:29.429Z,12.73
2018-10-12T10:11:57.246Z,14.27
2018-10-12T10:14:24.610Z,14.10
2018-10-12T10:16:51.967Z,14.40
2018-10-12T10:19:19.426Z,13.90
2018-10-12T10:21:46.702Z,14.40
2018-10-12T10:24:14.126Z,14.30
2018-10-12T10:26:41.642Z,16.67
2018-10-12T10:29:09.005Z,13.33
2018-10-12T10:31:36.378Z,13.30
2018-10-12T10:34:03.821Z,12.67
2018-10-12T10:36:31.173Z,12.90
2018-10-12T10:38:58.573Z,15.10
2018-10-12T10:41:25.989Z,14.40
2018-10-12T10:43:53.368Z,14.50
2018-10-12T10:46:20.873Z,14.53
2018-10-12T10:48:48.279Z,13.67
2018-10-12T10:51:16.090Z,12.97
2018-10-12T10:53:43.458Z,18.10
2018-10-12T10:56:10.871Z,11.60
2018-10-12T10:58:38.261Z,13.73
2018-10-12T11:01:05.626Z,13.20
2018-10-12T11:03:32.957Z,13.33
2018-10-12T11:06:00.334Z,12.27
2018-10-12T11:08:27.673Z,10.63
2018-10-12T11:10:55.050Z,13.63
2018-10-12T11:13:22.403Z,14.37
2018-10-12T11:15:49.648Z,12.63
2018-10-12T11:18:17.087Z,14.37
2018-10-12T11:20:44.484Z,11.00
2018-10-12T11:23:11.839Z,11.67
2018-10-12T11:25:39.155Z,11.90
2018-10-12T11:28:06.737Z,12.30
2018-10-12T11:30:34.192Z,11.43
2018-10-12T11:33:01.841Z,11.83
2018-10-12T11:35:29.105Z,10.63
2018-10-12T11:37:56.509Z,11.03
2018-10-12T11:40:23.981Z,11.17
2018-10-12T11:43:02.598Z,10.73
2018-10-12T11:45:30.024Z,11.10
2018-10-12T11:47:57.441Z,10.10
2018-10-12T11:50:24.806Z,9.47
2018-10-12T11:52:52.152Z,9.33
2018-10-12T11:55:19.592Z,12.10
2018-10-12T11:57:46.995Z,10.10
2018-10-12T12:00:14.349Z,10.17
2018-10-12T12:02:41.858Z,9.83
2018-10-12T12:05:09.306Z,9.63
2018-10-12T12:07:36.658Z,9.00
2018-10-12T12:10:04.543Z,10.13
2018-10-12T12:12:31.886Z,10.67
2018-10-12T12:14:59.300Z,8.20
2018-10-12T12:17:26.676Z,8.93
2018-10-12T12:19:54.044Z,7.47
2018-10-12T12:22:21.461Z,7.97
2018-10-12T12:24:48.825Z,8.50
2018-10-12T12:27:16.308Z,9.63
2018-10-12T12:29:43.658Z,7.53
2018-10-12T12:32:11.039Z,8.70
2018-10-12T12:34:38.544Z,8.00
2018-10-12T12:37:05.808Z,8.43
2018-10-12T12:39:34.382Z,7.70
2018-10-12T12:42:01.798Z,6.57
2018-10-12T12:44:29.150Z,8.03
2018-10-12T12:46:56.532Z,9.10
2018-10-12T12:49:24.169Z,6.20
2018-10-12T12:51:51.327Z,6.83
2018-10-12T12:54:18.739Z,7.40
2018-10-12T12:56:46.072Z,8.43
2018-10-12T12:59:13.487Z,7.40
2018-10-12T13:01:40.904Z,7.80
2018-10-12T13:04:08.259Z,7.23
2018-10-12T13:06:35.695Z,6.97
2018-10-12T13:09:04.848Z,6.83
2018-10-12T13:11:32.360Z,5.10
2018-10-12T13:13:59.741Z,6.00
2018-10-12T13:16:27.038Z,6.17
2018-10-12T13:18:54.645Z,6.33
2018-10-12T13:21:22.059Z,7.43
2018-10-12T13:23:49.563Z,5.20
2018-10-12T13:26:17.166Z,5.70
2018-10-12T13:28:44.606Z,5.47
2018-10-12T13:31:12.044Z,5.97
2018-10-12T13:33:39.429Z,5.33
2018-10-12T13:36:07.505Z,5.83
2018-10-12T13:38:35.048Z,7.23
2018-10-12T13:41:02.546Z,5.80
2018-10-12T13:43:30.008Z,5.27
2018-10-12T13:45:57.422Z,7.67
2018-10-12T13:48:24.850Z,6.40
2018-10-12T13:50:52.223Z,5.03
2018-10-12T13:53:19.702Z,6.30
2018-10-12T13:55:47.078Z,5.03
2018-10-12T13:58:14.505Z,5.37
2018-10-12T14:00:41.844Z,5.47
2018-10-12T14:03:09.872Z,5.40
2018-10-12T14:05:37.243Z,5.60
2018-10-12T14:08:04.724Z,4.50
2018-10-12T14:10:32.133Z,4.90
2018-10-12T14:12:59.594Z,5.73
2018-10-12T14:15:26.994Z,4.97
2018-10-12T14:17:54.395Z,6.17
2018-10-12T14:20:21.780Z,5.50
2018-10-12T14:22:49.129Z,5.80
2018-10-12T14:25:16.632Z,6.33
2018-10-12T14:27:43.975Z,7.70
2018-10-12T14:30:11.448Z,5.10
2018-10-12T14:32:38.854Z,6.03
2018-10-12T14:35:06.258Z,6.03
2018-10-12T14:37:33.676Z,11.03
2018-10-12T14:40:01.167Z,8.63
2018-10-12T14:42:28.612Z,23.07
2018-10-12T14:44:56.060Z,31.17
2018-10-12T14:47:23.564Z,5.63
2018-10-12T14:49:50.970Z,7.83
2018-10-12T14:52:18.322Z,6.70
2018-10-12T14:54:45.678Z,5.60
2018-10-12T14:57:18.541Z,8.90
2018-10-12T14:59:46.228Z,15.90
2018-10-12T15:02:13.655Z,7.93
2018-10-12T15:04:40.943Z,6.07
2018-10-12T15:07:08.325Z,6.70
2018-10-12T15:09:35.765Z,7.13
2018-10-12T15:12:03.064Z,5.83
2018-10-12T15:14:42.042Z,7.03
2018-10-12T15:17:09.686Z,6.43
2018-10-12T15:19:37.061Z,6.37
2018-10-12T15:22:05.147Z,7.20
2018-10-12T15:24:32.477Z,7.20
2018-10-12T15:27:00.055Z,6.83
2018-10-12T15:29:27.410Z,6.23
2018-10-12T15:31:54.788Z,7.13
2018-10-12T15:34:22.228Z,6.00
2018-10-12T15:36:49.544Z,6.73
2018-10-12T15:39:16.816Z,6.37
2018-10-12T15:41:44.076Z,6.57
2018-10-12T15:44:11.386Z,6.47
2018-10-12T15:46:38.643Z,6.73
2018-10-12T15:49:05.940Z,8.07
2018-10-12T15:51:33.294Z,6.27
2018-10-12T15:54:00.553Z,7.50
2018-10-12T15:56:27.854Z,6.30
2018-10-12T15:58:55.136Z,6.40
2018-10-12T16:01:22.549Z,6.80
2018-10-12T16:03:49.858Z,6.10
2018-10-12T16:06:17.729Z,6.17
2018-10-12T16:08:44.997Z,8.40
2018-10-12T16:11:12.369Z,10.30
2018-10-12T16:13:39.714Z,11.20
2018-10-12T16:16:07.984Z,10.30
2018-10-12T16:18:35.232Z,14.10
2018-10-12T16:21:02.845Z,7.20
2018-10-12T16:23:30.242Z,6.93
2018-10-12T16:26:20.070Z,8.23
2018-10-12T16:28:47.476Z,7.70
2018-10-12T16:31:14.851Z,7.27
2018-10-12T16:33:42.206Z,7.80
2018-10-12T16:36:09.712Z,8.03
2018-10-12T16:38:37.140Z,10.60
2018-10-12T16:41:04.542Z,10.00
2018-10-12T16:43:31.980Z,8.37
2018-10-12T16:45:59.354Z,12.07
2018-10-12T16:48:26.606Z,9.80
2018-10-12T16:50:53.905Z,9.87
2018-10-12T16:53:21.238Z,9.70
2018-10-12T16:55:48.625Z,9.80
2018-10-12T16:58:16.102Z,9.50
2018-10-12T17:00:43.480Z,11.67
2018-10-12T17:03:10.904Z,11.33
2018-10-12T17:05:38.284Z,10.33
2018-10-12T17:08:05.719Z,11.43
2018-10-12T17:10:33.641Z,12.30
2018-10-12T17:13:01.294Z,12.00
2018-10-12T17:15:28.699Z,9.83
2018-10-12T17:17:57.068Z,12.77
2018-10-12T17:20:24.450Z,11.60
2018-10-12T17:22:51.929Z,10.47
2018-10-12T17:25:19.244Z,10.47
2018-10-12T17:27:46.596Z,13.67
2018-10-12T17:30:13.963Z,12.80
2018-10-12T17:32:41.353Z,12.00
2018-10-12T17:35:08.833Z,11.70
2018-10-12T17:37:36.197Z,12.27
2018-10-12T17:40:03.756Z,11.40
2018-10-12T17:42:31.040Z,12.63
2018-10-12T17:44:58.278Z,16.03
2018-10-12T17:47:25.588Z,13.63
2018-10-12T17:49:52.887Z,13.77
2018-10-12T17:52:20.156Z,14.80
2018-10-12T17:54:47.380Z,14.17
2018-10-12T17:57:14.644Z,15.43
2018-10-12T17:59:41.944Z,15.00
2018-10-12T18:02:09.431Z,17.23
2018-10-12T18:04:36.674Z,16.97
2018-10-12T18:07:04.254Z,19.77
2018-10-12T18:09:31.548Z,16.50
2018-10-12T18:11:58.849Z,15.53
2018-10-12T18:14:26.361Z,15.93
2018-10-12T18:16:53.506Z,17.07
2018-10-12T18:19:20.797Z,20.90
2018-10-12T18:21:48.145Z,17.73
2018-10-12T18:24:15.604Z,19.20
2018-10-12T18:26:42.956Z,15.90
2018-10-12T18:29:10.417Z,13.90
2018-10-12T18:31:38.206Z,14.10
2018-10-12T18:34:05.572Z,14.03
2018-10-12T18:36:33.499Z,18.97
2018-10-12T18:39:00.731Z,17.47
2018-10-12T18:41:28.206Z,14.90
2018-10-12T18:43:55.897Z,17.40
2018-10-12T18:46:23.169Z,17.93
2018-10-12T18:48:50.547Z,13.90
2018-10-12T18:51:17.946Z,16.97
2018-10-12T18:53:45.291Z,19.00
2018-10-12T18:56:12.607Z,19.37
2018-10-12T18:58:39.946Z,18.23
2018-10-12T19:01:07.581Z,19.10
2018-10-12T19:03:34.935Z,19.47
2018-10-12T19:06:02.292Z,16.97
2018-10-12T19:08:29.666Z,18.90
2018-10-12T19:10:57.005Z,17.87
2018-10-12T19:13:24.407Z,18.53
2018-10-12T19:15:52.020Z,15.67
2018-10-12T19:18:19.565Z,18.53
2018-10-12T19:20:46.946Z,13.27
2018-10-12T19:23:14.425Z,13.00
2018-10-12T19:25:41.762Z,12.67
2018-10-12T19:28:09.077Z,14.13
2018-10-12T19:30:36.392Z,16.27
2018-10-12T19:33:03.782Z,12.50
2018-10-12T19:35:31.142Z,19.10
2018-10-12T19:37:58.628Z,16.40
2018-10-12T19:40:26.084Z,12.47
2018-10-12T19:42:53.457Z,13.30
2018-10-12T19:45:20.796Z,13.90
2018-10-12T19:47:48.109Z,19.33
2018-10-12T19:50:15.518Z,13.67
2018-10-12T19:52:42.872Z,14.20
2018-10-12T19:55:10.193Z,12.87
2018-10-12T19:57:37.543Z,14.43
2018-10-12T20:00:05.861Z,15.00
2018-10-12T20:02:34.007Z,15.23
2018-10-12T20:05:01.392Z,13.03
2018-10-12T20:07:28.697Z,13.40
2018-10-12T20:09:55.994Z,15.57
2018-10-12T20:12:23.533Z,15.53
2018-10-12T20:14:50.970Z,14.23
2018-10-12T20:17:18.320Z,13.93
2018-10-12T20:19:45.655Z,13.33
2018-10-12T20:22:13.119Z,13.40
2018-10-12T20:24:40.731Z,14.10
2018-10-12T20:27:08.033Z,13.20
2018-10-12T20:29:35.720Z,19.90
2018-10-12T20:32:02.967Z,13.67
2018-10-12T20:34:30.233Z,15.40
2018-10-12T20:36:57.635Z,15.30
2018-10-12T20:39:24.904Z,17.60
2018-10-12T20:41:52.221Z,14.93
2018-10-12T20:44:19.523Z,16.40
2018-10-12T20:46:46.797Z,17.30
2018-10-12T20:49:14.133Z,18.40
2018-10-12T20:51:41.389Z,18.13
2018-10-12T20:54:08.684Z,15.70
2018-10-12T20:56:36.203Z,14.23
2018-10-12T20:59:03.557Z,14.53
2018-10-12T21:01:30.865Z,14.43
2018-10-12T21:03:58.157Z,22.27
2018-10-12T21:06:25.472Z,14.50
2018-10-12T21:08:52.730Z,17.77
2018-10-12T21:11:20.025Z,13.70
2018-10-12T21:13:47.364Z,16.40
2018-10-12T21:16:14.653Z,13.83
2018-10-12T21:18:41.945Z,14.77
2018-10-12T21:21:09.268Z,14.07
2018-10-12T21:23:36.769Z,13.23
2018-10-12T21:26:04.050Z,12.60
2018-10-12T21:28:32.052Z,14.10
2018-10-12T21:30:59.337Z,14.60
2018-10-12T21:33:26.676Z,15.80
2018-10-12T21:35:53.935Z,12.60
2018-10-12T21:38:21.232Z,11.17
2018-10-12T21:40:48.504Z,13.00
2018-10-12T21:43:15.869Z,12.70
2018-10-12T21:45:43.161Z,13.63
2018-10-12T21:48:10.472Z,13.50
2018-10-12T21:50:37.803Z,10.90
2018-10-12T21:53:05.092Z,11.70
2018-10-12T21:55:32.477Z,12.60
2018-10-12T21:57:59.748Z,12.40
2018-10-12T22:00:27.005Z,15.00
2018-10-12T22:02:54.304Z,14.20
2018-10-12T22:05:21.581Z,13.43
2018-10-12T22:07:48.848Z,13.13
2018-10-12T22:10:16.134Z,15.17
2018-10-12T22:12:43.484Z,15.17
2018-10-12T22:15:10.788Z,15.80
2018-10-12T22:17:38.101Z,14.10
2018-10-12T22:20:05.535Z,17.37
2018-10-12T22:22:32.850Z,14.40
2018-10-12T22:25:00.137Z,12.27
2018-10-12T22:27:27.403Z,12.73
2018-10-12T22:29:54.747Z,12.00
2018-10-12T22:32:22.010Z,14.20
2018-10-12T22:34:49.283Z,15.50
2018-10-12T22:37:16.596Z,13.33
2018-10-12T22:39:43.836Z,12.90
2018-10-12T22:42:11.889Z,13.43
2018-10-12T22:44:39.204Z,18.30
2018-10-12T22:47:06.745Z,12.93
2018-10-12T22:49:34.205Z,11.67
2018-10-12T22:52:01.517Z,13.00
2018-10-12T22:54:28.865Z,11.77
2018-10-12T22:56:56.147Z,12.87
2018-10-12T22:59:23.440Z,13.07
2018-10-12T23:01:50.748Z,12.43
2018-10-12T23:04:18.015Z,11.63
2018-10-12T23:06:45.284Z,12.47
2018-10-12T23:09:12.541Z,14.37
2018-10-12T23:11:40.030Z,11.70
2018-10-12T23:14:07.790Z,11.43
2018-10-12T23:16:35.121Z,11.37
2018-10-12T23:19:02.429Z,10.43
2018-10-12T23:21:29.741Z,11.83
2018-10-12T23:23:57.070Z,11.70
2018-10-12T23:26:24.408Z,11.63
2018-10-12T23:28:51.668Z,10.90
2018-10-12T23:31:18.930Z,13.00
2018-10-12T23:33:57.659Z,12.63
2018-10-12T23:36:24.946Z,11.53
2018-10-12T23:38:52.279Z,11.30
2018-10-12T23:41:19.656Z,15.37
2018-10-12T23:43:46.963Z,13.20
2018-10-12T23:46:14.312Z,13.00
2018-10-12T23:48:41.645Z,11.53
2018-10-12T23:51:08.936Z,11.03
2018-10-12T23:53:36.456Z,13.53
2018-10-12T23:56:03.815Z,10.73
2018-10-12T23:58:31.024Z,12.20
